Time;durP1;ratioP1;P1;durP2;ratioP2;P2;SDS_P1;SDS_P2;PMS_P1;PMS_P2;Temp;Humidity;BMP_temperature;BMP_pressure;BME280_temperature;BME280_humidity;BME280_pressure;Samples;Min_cycle;Max_cycle;Signal;HPM_P1;HPM_P2
2022/02/15 00:02:20;;;;;;;4.80;2.73;;;;;;;11.22;58.94;97208.22;8330313;28;20427;-66
2022/02/15 00:06:23;;;;;;;5.27;2.60;;;;;;;11.13;59.57;97203.56;8316301;28;20239;-67
2022/02/15 00:10:25;;;;;;;4.53;2.93;;;;;;;11.25;58.92;97207.19;8316362;28;20237;-67
2022/02/15 00:14:31;;;;;;;3.50;2.40;;;;;;;11.26;58.89;97201.09;8316302;28;20243;-67
2022/02/15 00:18:34;;;;;;;3.60;2.53;;;;;;;11.24;59.22;97208.13;8315666;28;20244;-67
2022/02/15 00:22:37;;;;;;;5.40;2.60;;;;;;;11.21;59.44;97210.88;8315762;28;20240;-67
2022/02/15 00:26:40;;;;;;;3.67;2.63;;;;;;;11.14;59.29;97207.84;8315763;28;20241;-67
2022/02/15 00:30:44;;;;;;;2.80;2.47;;;;;;;11.18;59.49;97213.69;8315861;28;20244;-67
2022/02/15 00:34:47;;;;;;;3.47;2.53;;;;;;;11.10;59.36;97208.91;8315552;28;20234;-67
2022/02/15 00:38:50;;;;;;;4.80;3.03;;;;;;;11.13;59.54;97212.16;8323626;28;20229;-66
2022/02/15 00:42:53;;;;;;;4.53;3.00;;;;;;;11.10;59.76;97208.91;8348762;28;20234;-67
2022/02/15 00:46:58;;;;;;;3.10;2.80;;;;;;;11.10;59.69;97217.56;8348346;28;20308;-66
2022/02/15 00:51:01;;;;;;;4.83;2.80;;;;;;;11.05;59.73;97208.38;8348020;28;20231;-66
2022/02/15 00:55:07;;;;;;;3.43;2.60;;;;;;;11.03;59.78;97213.63;8347953;28;20235;-67
2022/02/15 00:59:10;;;;;;;3.00;2.37;;;;;;;11.03;59.70;97218.81;8348034;28;20392;-66
2022/02/15 01:03:14;;;;;;;5.43;2.70;;;;;;;11.03;59.79;97229.19;8347709;28;20232;-66
2022/02/15 01:07:17;;;;;;;3.73;2.70;;;;;;;11.03;59.71;97224.00;8347369;28;20235;-67
2022/02/15 01:11:20;;;;;;;3.87;2.50;;;;;;;11.01;59.92;97222.44;8347521;28;20228;-67
2022/02/15 01:15:23;;;;;;;4.37;2.43;;;;;;;11.05;59.45;97216.97;8347398;28;20228;-66
2022/02/15 01:19:29;;;;;;;4.63;2.50;;;;;;;11.00;59.88;97221.56;8347277;28;20243;-66
2022/02/15 01:23:32;;;;;;;2.73;2.50;;;;;;;10.97;59.89;97214.00;8346968;28;20231;-67
2022/02/15 01:27:35;;;;;;;5.37;2.70;;;;;;;11.00;59.54;97226.75;8347043;28;20244;-67
2022/02/15 01:31:38;;;;;;;3.83;2.90;;;;;;;10.86;59.85;97221.56;8353013;28;20240;-67
2022/02/15 01:35:43;;;;;;;3.50;2.77;;;;;;;10.90;59.52;97217.88;8353815;28;20539;-67
2022/02/15 01:39:46;;;;;;;3.47;3.00;;;;;;;10.98;59.51;97223.44;8353448;28;20240;-67
2022/02/15 01:43:49;;;;;;;3.27;2.60;;;;;;;10.94;59.36;97204.63;8354697;28;20569;-66
2022/02/15 01:47:52;;;;;;;3.73;2.70;;;;;;;10.96;59.59;97212.31;8355068;28;20220;-66
2022/02/15 01:51:57;;;;;;;3.90;2.90;;;;;;;10.82;59.75;97233.03;8355109;28;20207;-66
2022/02/15 01:56:00;;;;;;;6.43;3.50;;;;;;;10.80;60.02;97240.88;8355114;28;20538;-66
2022/02/15 02:00:06;;;;;;;5.97;3.23;;;;;;;10.81;59.95;97241.69;8353341;28;20251;-67
2022/02/15 02:05:47;;;;;;;6.50;3.53;;;;;;;10.86;59.95;97227.56;8353128;28;20228;-66
2022/02/15 02:08:35;;;;;;;5.03;3.67;;;;;;;10.86;59.78;97229.31;8352291;28;20242;-67
2022/02/15 02:12:38;;;;;;;4.00;3.50;;;;;;;10.82;59.91;97227.84;8352537;28;20247;-67
2022/02/15 02:16:41;;;;;;;3.60;3.30;;;;;;;10.71;60.21;97229.25;8352605;28;20250;-67
2022/02/15 02:20:44;;;;;;;4.13;3.60;;;;;;;10.82;59.92;97238.19;8352295;28;20236;-67
2022/02/15 02:24:49;;;;;;;4.80;3.70;;;;;;;10.79;60.16;97233.19;8351911;28;20236;-67
2022/02/15 02:28:52;;;;;;;5.47;3.60;;;;;;;10.68;60.74;97226.88;8352344;28;20236;-67
2022/02/15 02:32:55;;;;;;;4.70;3.40;;;;;;;10.51;60.95;97226.97;8351813;28;20232;-66
2022/02/15 02:36:58;;;;;;;5.30;3.80;;;;;;;10.58;60.50;97225.69;8352081;28;20232;-67
2022/02/15 02:41:02;;;;;;;4.30;3.90;;;;;;;10.62;60.32;97229.78;8350022;28;20232;-66
2022/02/15 02:45:07;;;;;;;3.80;3.50;;;;;;;10.63;60.42;97228.88;8351661;28;20236;-66
2022/02/15 02:49:10;;;;;;;4.20;3.30;;;;;;;10.64;60.12;97230.56;8351453;28;20239;-66
2022/02/15 02:53:13;;;;;;;4.23;3.40;;;;;;;10.58;60.51;97238.66;8351393;28;20416;-66
2022/02/15 02:57:18;;;;;;;4.30;3.90;;;;;;;10.35;61.04;97240.75;8351130;28;20228;-67
2022/02/15 03:01:21;;;;;;;6.37;4.93;;;;;;;10.02;62.51;97255.50;8350940;28;20538;-67
2022/02/15 03:05:24;;;;;;;7.70;5.30;;;;;;;10.27;61.43;97255.00;8350986;28;20231;-66
2022/02/15 03:09:26;;;;;;;5.87;5.23;;;;;;;10.08;62.30;97257.75;8351119;28;20240;-67
2022/02/15 03:13:31;;;;;;;5.70;5.10;;;;;;;10.26;61.21;97264.53;8350553;28;20236;-66
2022/02/15 03:17:34;;;;;;;8.87;6.10;;;;;;;10.14;62.16;97267.78;8350302;28;20523;-66
2022/02/15 03:21:58;;;;;;;7.13;5.63;;;;;;;10.34;61.44;97272.75;8350626;28;20235;-67
2022/02/15 03:26:02;;;;;;;9.07;5.73;;;;;;;10.22;61.93;97273.34;8350396;28;20411;-67
2022/02/15 03:30:07;;;;;;;5.87;4.70;;;;;;;10.44;61.08;97283.44;8350478;28;20573;-67
2022/02/15 03:34:11;;;;;;;6.93;5.23;;;;;;;10.39;61.23;97272.47;8350276;28;20228;-66
2022/02/15 03:38:14;;;;;;;5.90;4.93;;;;;;;10.49;61.15;97283.16;8350322;28;20228;-66
2022/02/15 03:46:35;;;;;;;5.20;4.70;;;;;;;10.50;61.02;97293.44;8327132;28;20238;-67
2022/02/15 03:50:38;;;;;;;5.70;5.20;;;;;;;10.47;60.81;97303.13;8349617;28;20236;-67
2022/02/15 03:54:41;;;;;;;7.20;5.13;;;;;;;10.57;60.81;97310.31;8349413;28;20240;-66
2022/02/15 03:58:46;;;;;;;7.80;4.97;;;;;;;10.55;60.98;97319.09;8349725;28;20271;-67
2022/02/15 04:02:51;;;;;;;6.37;5.10;;;;;;;10.48;60.98;97308.22;8349499;28;20435;-67
2022/02/15 04:06:54;;;;;;;5.93;5.40;;;;;;;10.52;61.01;97311.47;8349496;28;20503;-67
2022/02/15 04:10:57;;;;;;;5.63;5.00;;;;;;;10.47;60.99;97326.41;8349335;28;20238;-66
2022/02/15 04:15:00;;;;;;;5.80;4.57;;;;;;;10.48;60.65;97315.97;8348710;28;20547;-67
2022/02/15 04:19:04;;;;;;;4.93;4.53;;;;;;;10.51;60.69;97315.84;8348446;28;20232;-66
2022/02/15 04:23:07;;;;;;;5.90;4.40;;;;;;;10.51;60.57;97323.59;8348613;28;20422;-67
2022/02/15 04:27:10;;;;;;;4.53;4.10;;;;;;;10.53;60.36;97326.13;8348240;28;20430;-67
2022/02/15 04:31:13;;;;;;;4.43;4.03;;;;;;;10.49;60.49;97325.44;8348321;28;20228;-67
2022/02/15 04:35:18;;;;;;;4.63;4.17;;;;;;;10.42;60.43;97323.25;8348432;28;20286;-66
2022/02/15 04:39:22;;;;;;;4.73;4.23;;;;;;;10.23;61.16;97323.38;8348027;28;20247;-66
2022/02/15 04:43:25;;;;;;;5.40;4.27;;;;;;;10.35;60.44;97328.75;8348243;28;20417;-66
2022/02/15 04:47:28;;;;;;;5.40;4.77;;;;;;;10.40;60.26;97325.09;8348203;28;20240;-66
2022/02/15 04:51:33;;;;;;;9.10;5.13;;;;;;;10.41;59.99;97319.81;8339554;28;20235;-67
2022/02/15 04:55:36;;;;;;;6.97;6.27;;;;;;;10.32;60.24;97330.69;8348078;28;20235;-67
2022/02/15 04:59:39;;;;;;;7.07;6.40;;;;;;;10.40;59.98;97328.53;8347910;28;20240;-67
2022/02/15 05:03:42;;;;;;;6.67;6.07;;;;;;;10.36;60.24;97334.78;8347350;28;20419;-66
2022/02/15 05:07:47;;;;;;;7.10;6.40;;;;;;;10.21;60.94;97332.97;8347845;28;20238;-66
2022/02/15 05:11:50;;;;;;;7.60;6.90;;;;;;;10.20;60.93;97337.28;8347885;28;20247;-66
2022/02/15 05:15:53;;;;;;;6.73;6.13;;;;;;;10.20;60.98;97326.13;8347946;28;20232;-67
2022/02/15 05:19:56;;;;;;;6.20;5.60;;;;;;;10.17;60.54;97329.72;8347808;28;20550;-66
2022/02/15 05:24:01;;;;;;;7.87;7.03;;;;;;;9.97;61.56;97333.31;8347402;28;20235;-66
2022/02/15 05:28:05;;;;;;;8.43;7.67;;;;;;;10.06;60.88;97353.56;8347301;28;20232;-66
2022/02/15 05:32:09;;;;;;;9.60;8.43;;;;;;;9.84;61.74;97356.41;8347756;28;20228;-66
2022/02/15 05:36:12;;;;;;;7.67;6.70;;;;;;;10.04;60.69;97355.38;8347619;28;20228;-66
2022/02/15 05:40:18;;;;;;;7.27;6.30;;;;;;;10.03;60.14;97365.81;8346686;28;20228;-66
2022/02/15 05:44:20;;;;;;;6.93;6.10;;;;;;;9.97;59.88;97370.38;8347001;28;20243;-66
2022/02/15 05:48:24;;;;;;;6.90;5.90;;;;;;;9.85;60.79;97365.00;8346732;28;20274;-66
2022/02/15 05:52:27;;;;;;;6.87;5.80;;;;;;;9.78;60.86;97362.72;8346875;28;20424;-66
2022/02/15 05:56:32;;;;;;;6.73;6.03;;;;;;;9.81;60.26;97371.25;8345994;28;20240;-66
2022/02/15 06:00:35;;;;;;;8.13;6.33;;;;;;;9.89;59.66;97369.94;8345396;28;20546;-67
2022/02/15 06:04:38;;;;;;;7.30;6.60;;;;;;;9.86;59.71;97379.59;8345404;28;20232;-66
2022/02/15 06:08:41;;;;;;;9.40;7.23;;;;;;;9.83;59.52;97374.59;8345557;28;20224;-67
2022/02/15 06:12:46;;;;;;;7.60;6.90;;;;;;;9.75;60.05;97380.16;8345829;28;20338;-66
2022/02/15 06:16:49;;;;;;;7.40;6.70;;;;;;;9.66;60.11;97376.28;8350760;28;20393;-66
2022/02/15 06:20:53;;;;;;;7.77;7.00;;;;;;;9.76;59.74;97397.34;8351278;28;20239;-66
2022/02/15 06:24:56;;;;;;;9.00;7.83;;;;;;;9.77;60.26;97404.19;8351825;28;20232;-66
2022/02/15 06:29:01;;;;;;;11.97;10.60;;;;;;;9.62;60.64;97400.63;8352150;28;20231;-66
2022/02/15 06:33:04;;;;;;;9.63;8.63;;;;;;;9.64;60.22;97409.13;8352075;28;20236;-67
2022/02/15 06:37:07;;;;;;;15.43;13.70;;;;;;;9.36;61.63;97407.88;8352268;28;20228;-66
2022/02/15 06:41:11;;;;;;;9.40;8.40;;;;;;;9.56;61.27;97411.25;8351502;28;20243;-66
2022/02/15 06:45:16;;;;;;;10.00;9.00;;;;;;;9.28;61.88;97416.94;8351555;28;20228;-67
2022/02/15 06:49:19;;;;;;;9.63;8.30;;;;;;;9.18;63.22;97426.88;8351661;28;20235;-66
2022/02/15 06:53:22;;;;;;;10.33;9.23;;;;;;;8.98;63.47;97425.19;8351714;28;20546;-66
2022/02/15 06:57:43;;;;;;;11.03;9.93;;;;;;;8.99;63.80;97429.47;8351171;28;20293;-67
2022/02/15 07:01:47;;;;;;;9.90;8.93;;;;;;;9.19;62.81;97431.09;8350739;28;20236;-67
2022/02/15 07:05:50;;;;;;;9.77;8.77;;;;;;;9.25;63.40;97437.72;8350969;28;20242;-66
2022/02/15 07:09:55;;;;;;;11.37;9.73;;;;;;;9.29;62.95;97434.94;8350614;28;20232;-67
2022/02/15 07:13:58;;;;;;;10.33;9.23;;;;;;;9.46;62.42;97439.31;8350554;28;20224;-66
2022/02/15 07:18:02;;;;;;;9.87;8.97;;;;;;;9.46;62.42;97436.72;8350544;28;20232;-66
2022/02/15 07:22:08;;;;;;;11.17;9.23;;;;;;;9.70;61.82;97450.19;8350516;28;20534;-66
2022/02/15 07:26:11;;;;;;;8.93;8.13;;;;;;;9.78;61.44;97449.81;8349206;28;20547;-66
2022/02/15 07:30:16;;;;;;;9.37;8.40;;;;;;;9.83;61.44;97459.94;8350084;28;20406;-66
2022/02/15 07:34:20;;;;;;;10.00;9.03;;;;;;;9.82;61.74;97466.00;8350166;28;20228;-66
2022/02/15 07:38:23;;;;;;;9.40;8.47;;;;;;;9.87;61.65;97464.88;8349915;28;20224;-66
2022/02/15 07:42:26;;;;;;;9.37;8.40;;;;;;;10.02;61.46;97467.63;8349693;28;20243;-66
2022/02/15 07:46:29;;;;;;;14.60;8.37;;;;;;;9.94;61.34;97473.19;8349723;28;20258;-66
2022/02/15 07:50:34;;;;;;;8.43;7.63;;;;;;;10.06;60.97;97479.50;8349260;28;20231;-67
2022/02/15 07:54:37;;;;;;;8.50;7.67;;;;;;;10.12;61.19;97482.59;8349568;28;20232;-67
2022/02/15 07:58:40;;;;;;;7.60;6.90;;;;;;;10.15;61.13;97479.88;8349370;28;20253;-66
2022/02/15 08:02:43;;;;;;;9.20;7.93;;;;;;;10.17;60.95;97484.97;8348668;28;20236;-67
2022/02/15 08:06:53;;;;;;;9.10;7.87;;;;;;;10.22;60.74;97493.31;8348913;28;20228;-66
2022/02/15 08:10:57;;;;;;;9.07;7.57;;;;;;;10.29;60.35;97499.03;8349141;28;20562;-66
2022/02/15 08:15:00;;;;;;;11.93;8.40;;;;;;;10.29;60.54;97499.03;8349172;28;20259;-66
2022/02/15 08:19:03;;;;;;;7.77;6.77;;;;;;;10.36;60.53;97506.44;8348422;28;20243;-66
2022/02/15 08:23:09;;;;;;;5.93;5.33;;;;;;;10.34;60.22;97513.44;8348171;28;20239;-66
2022/02/15 08:27:13;;;;;;;5.00;4.50;;;;;;;10.30;60.50;97519.69;8348620;28;20535;-67
2022/02/15 08:31:36;;;;;;;5.33;4.47;;;;;;;10.36;60.35;97527.16;8340727;28;20236;-68
2022/02/15 08:35:39;;;;;;;5.20;3.97;;;;;;;10.44;59.99;97547.47;8348446;28;20243;-67
2022/02/15 08:39:44;;;;;;;4.60;4.13;;;;;;;10.12;61.25;97538.69;8348038;28;20236;-65
2022/02/15 08:43:46;;;;;;;4.47;4.07;;;;;;;10.26;60.54;97546.63;8348563;28;20243;-66
2022/02/15 08:47:50;;;;;;;4.53;3.57;;;;;;;10.41;59.88;97544.19;8348211;28;20301;-66
2022/02/15 08:51:53;;;;;;;4.07;3.67;;;;;;;10.44;59.85;97542.28;8344503;28;20235;-66
2022/02/15 08:55:58;;;;;;;4.17;3.53;;;;;;;10.47;58.99;97539.56;8347389;28;20558;-67
2022/02/15 09:00:01;;;;;;;3.93;3.23;;;;;;;10.35;60.38;97543.56;8347383;28;20228;-67
2022/02/15 09:04:04;;;;;;;5.00;3.43;;;;;;;10.64;59.35;97550.78;8345239;28;20620;-64
2022/02/15 09:08:10;;;;;;;6.00;3.43;;;;;;;10.65;59.55;97550.72;8347471;28;20248;-64
2022/02/15 09:12:15;;;;;;;2.90;2.33;;;;;;;10.64;59.58;97551.66;8347657;28;20244;-64
2022/02/15 09:16:18;;;;;;;2.60;2.30;;;;;;;10.72;59.35;97554.66;8347606;28;20235;-64
2022/02/15 09:20:22;;;;;;;4.20;2.83;;;;;;;10.71;60.08;97557.34;8347440;28;20291;-64
2022/02/15 09:24:26;;;;;;;7.17;2.70;;;;;;;12.67;67.67;97561.22;8347657;28;20240;-64
2022/02/15 09:28:30;;;;;;;4.70;2.60;;;;;;;12.31;55.94;97546.88;8347483;28;20243;-63
2022/02/15 09:32:34;;;;;;;3.07;2.40;;;;;;;11.98;57.50;97560.03;8346857;28;20254;-64
2022/02/15 09:36:37;;;;;;;3.00;2.37;;;;;;;11.74;56.85;97546.66;8347355;28;20247;-63
2022/02/15 09:40:40;;;;;;;3.37;2.47;;;;;;;11.60;57.43;97550.00;8346884;28;20232;-64
2022/02/15 09:44:49;;;;;;;3.87;2.60;;;;;;;11.42;57.04;97551.84;8347325;28;20232;-63
2022/02/15 09:48:52;;;;;;;4.07;2.47;;;;;;;11.80;56.96;97561.03;8346992;28;20243;-63
2022/02/15 09:52:55;;;;;;;3.00;2.30;;;;;;;12.20;56.07;97562.25;8353472;28;20232;-63
2022/02/15 09:56:58;;;;;;;3.17;2.17;;;;;;;12.04;56.34;97562.28;8353396;28;20228;-64
2022/02/15 10:01:03;;;;;;;4.13;2.47;;;;;;;11.90;55.76;97565.66;8353167;28;20251;-64
2022/02/15 10:05:10;;;;;;;3.23;2.43;;;;;;;12.37;55.65;97570.81;8353339;28;20228;-64
2022/02/15 10:09:13;;;;;;;4.10;2.40;;;;;;;13.24;52.79;97567.38;8352705;28;20239;-64
2022/02/15 10:13:16;;;;;;;6.10;2.40;;;;;;;12.38;54.85;97575.94;8352782;28;20231;-64
2022/02/15 10:17:22;;;;;;;3.10;2.30;;;;;;;12.04;55.24;97577.84;8352668;28;20224;-63
2022/02/15 10:21:28;;;;;;;2.90;2.33;;;;;;;12.08;55.35;97584.53;8345319;28;20240;-63
2022/02/15 10:25:34;;;;;;;2.93;2.20;;;;;;;11.59;55.40;97579.44;8319051;28;20228;-63
2022/02/15 10:29:39;;;;;;;2.93;2.50;;;;;;;11.71;54.98;97568.41;8319145;28;20291;-63
2022/02/15 10:33:45;;;;;;;4.30;3.20;;;;;;;11.99;54.87;97585.06;8319010;28;20243;-63
2022/02/15 10:37:54;;;;;;;4.40;2.90;;;;;;;12.89;53.63;97583.38;8319317;28;20233;-64
2022/02/15 10:42:04;;;;;;;3.10;2.50;;;;;;;12.50;53.25;97579.56;8351811;28;20236;-64
2022/02/15 10:46:10;;;;;;;3.37;2.20;;;;;;;12.39;53.61;97575.00;8351559;28;20235;-64
2022/02/15 10:50:16;;;;;;;3.77;1.93;;;;;;;12.97;52.51;97573.34;8351689;28;20232;-64
2022/02/15 10:54:19;;;;;;;2.63;2.00;;;;;;;13.75;50.71;97575.50;8351649;28;20506;-64
2022/02/15 10:58:22;;;;;;;3.37;1.97;;;;;;;13.45;49.08;97575.66;8351261;28;20232;-63
2022/02/15 11:02:26;;;;;;;2.73;2.03;;;;;;;12.87;50.60;97583.44;8349908;28;20236;-64
2022/02/15 11:06:31;;;;;;;3.73;2.20;;;;;;;12.50;51.09;97583.00;8351050;28;20236;-64
2022/02/15 11:10:40;;;;;;;2.57;2.00;;;;;;;12.34;51.94;97592.63;8350797;28;20228;-64
2022/02/15 11:14:43;;;;;;;2.40;2.03;;;;;;;12.08;52.12;97584.53;8350933;28;20236;-63
2022/02/15 11:18:46;;;;;;;2.57;2.00;;;;;;;12.09;53.09;97591.41;8350579;28;20239;-61
2022/02/15 11:22:53;;;;;;;3.43;1.97;;;;;;;11.46;52.94;97596.59;8350363;28;20236;-62
2022/02/15 11:26:56;;;;;;;2.67;1.70;;;;;;;11.64;53.97;97592.19;8350443;28;20469;-61
2022/02/15 11:31:01;;;;;;;2.70;2.27;;;;;;;12.25;52.43;97595.75;8350348;28;20231;-62
2022/02/15 11:35:09;;;;;;;3.27;2.20;;;;;;;12.23;51.19;97600.19;8350048;28;20422;-61
2022/02/15 11:39:17;;;;;;;2.70;2.13;;;;;;;12.07;50.28;97600.19;8350075;28;20261;-62
2022/02/15 11:43:20;;;;;;;3.17;2.23;;;;;;;12.04;50.87;97611.59;8349972;28;20235;-62
2022/02/15 11:47:30;;;;;;;3.90;2.20;;;;;;;12.11;50.44;97614.69;8349798;28;20291;-62
2022/02/15 11:51:33;;;;;;;2.47;2.07;;;;;;;11.91;49.99;97608.84;8349126;28;20224;-62
2022/02/15 11:55:37;;;;;;;3.23;2.10;;;;;;;11.82;50.65;97614.53;8349142;28;20273;-62
2022/02/15 11:59:40;;;;;;;4.43;2.70;;;;;;;11.90;50.83;97611.53;8349383;28;20586;-62
2022/02/15 12:03:45;;;;;;;2.73;2.00;;;;;;;11.86;51.04;97615.16;8348935;28;20235;-62
2022/02/15 12:07:48;;;;;;;2.13;1.90;;;;;;;11.71;50.99;97611.69;8349265;28;20236;-62
2022/02/15 12:11:52;;;;;;;3.47;2.50;;;;;;;11.58;51.53;97618.47;8348983;28;20562;-62
2022/02/15 12:15:55;;;;;;;4.20;2.17;;;;;;;11.74;51.91;97621.88;8348566;28;20541;-61
2022/02/15 12:20:00;;;;;;;2.87;2.20;;;;;;;11.60;52.16;97614.03;8347956;28;20231;-64
2022/02/15 12:24:03;;;;;;;2.87;2.43;;;;;;;11.68;52.08;97617.03;8347557;28;20232;-68
2022/02/15 12:28:09;;;;;;;3.07;2.50;;;;;;;11.69;52.70;97616.09;8344580;28;20224;-68
2022/02/15 12:32:12;;;;;;;3.10;2.60;;;;;;;11.47;53.03;97617.25;8347813;28;20234;-68
2022/02/15 12:36:15;;;;;;;2.70;2.43;;;;;;;11.38;53.23;97620.34;8346962;28;20231;-67
2022/02/15 12:40:19;;;;;;;3.07;2.50;;;;;;;11.29;53.94;97613.03;8347360;28;20232;-68
2022/02/15 12:44:24;;;;;;;2.40;2.20;;;;;;;11.42;54.63;97611.47;8344631;28;20433;-71
2022/02/15 12:48:27;;;;;;;2.63;1.90;;;;;;;11.46;54.19;97606.97;8347138;28;20240;-68
2022/02/15 12:52:31;;;;;;;3.93;2.00;;;;;;;11.80;54.46;97599.94;8347322;28;20231;-69
2022/02/15 12:56:35;;;;;;;2.40;2.20;;;;;;;11.77;54.52;97593.19;8346230;28;20228;-67
2022/02/15 13:00:42;;;;;;;3.60;2.40;;;;;;;11.90;54.54;97601.16;8346892;28;20224;-68
2022/02/15 13:04:47;;;;;;;3.73;2.37;;;;;;;11.81;55.33;97606.81;8344132;28;20291;-68
2022/02/15 13:08:51;;;;;;;2.60;2.40;;;;;;;12.05;54.12;97605.50;8344753;28;20727;-68
2022/02/15 13:13:06;;;;;;;2.77;2.50;;;;;;;11.82;54.63;97604.16;8347013;28;20500;-63
2022/02/15 13:17:10;;;;;;;4.10;2.23;;;;;;;11.60;55.36;97599.28;8345209;28;20258;-63
2022/02/15 13:21:15;;;;;;;3.53;1.83;;;;;;;11.68;54.94;97607.47;8346862;28;20224;-63
2022/02/15 13:25:18;;;;;;;3.80;1.80;;;;;;;11.77;53.39;97600.97;8348496;28;20240;-63
2022/02/15 13:29:24;;;;;;;2.77;1.80;;;;;;;11.81;53.08;97609.41;8353812;28;20228;-63
2022/02/15 13:33:40;;;;;;;2.07;1.60;;;;;;;11.89;52.88;97604.63;8353887;28;20236;-63
2022/02/15 13:37:47;;;;;;;1.97;1.50;;;;;;;12.89;49.97;97596.34;8353343;28;20235;-63
2022/02/15 13:41:51;;;;;;;1.47;1.30;;;;;;;12.91;49.64;97604.91;8353706;28;20243;-63
2022/02/15 13:45:55;;;;;;;1.57;1.47;;;;;;;13.12;48.71;97615.78;8353203;28;20235;-63
2022/02/15 13:49:59;;;;;;;2.47;1.57;;;;;;;12.56;49.59;97620.78;8353329;28;20235;-63
2022/02/15 13:54:03;;;;;;;0.80;0.80;;;;;;;11.61;51.20;97626.88;8352933;28;20542;-63
2022/02/15 13:58:08;;;;;;;1.17;1.07;;;;;;;11.96;52.11;97633.72;8349580;28;20242;-63
2022/02/15 14:02:11;;;;;;;2.20;0.80;;;;;;;11.99;50.92;97630.94;8351980;28;20436;-61
2022/02/15 14:06:15;;;;;;;0.63;0.57;;;;;;;12.20;49.92;97629.72;8351989;28;20236;-61
2022/02/15 14:10:20;;;;;;;1.80;0.80;;;;;;;12.31;49.19;97631.72;8352035;28;20231;-61
2022/02/15 14:14:23;;;;;;;5.10;1.00;;;;;;;12.23;49.10;97632.16;8351726;28;20231;-61
2022/02/15 14:18:26;;;;;;;1.20;0.80;;;;;;;12.09;49.13;97639.91;8348908;28;20247;-60
2022/02/15 14:22:31;;;;;;;1.00;0.90;;;;;;;12.16;49.11;97635.19;8351549;28;20231;-61
2022/02/15 14:26:34;;;;;;;1.23;0.90;;;;;;;12.14;48.84;97637.88;8350781;28;20227;-62
2022/02/15 14:30:37;;;;;;;2.50;0.90;;;;;;;12.17;48.68;97634.28;8351408;28;20235;-62
2022/02/15 14:34:41;;;;;;;0.80;0.80;;;;;;;12.20;48.97;97644.47;8350973;28;20232;-61
2022/02/15 14:38:45;;;;;;;2.00;1.00;;;;;;;12.16;48.75;97643.81;8341376;28;20224;-62
2022/02/15 14:42:48;;;;;;;2.93;1.20;;;;;;;11.95;48.98;97643.25;8334695;28;20424;-62
2022/02/15 14:46:51;;;;;;;1.87;1.10;;;;;;;12.10;48.95;97641.56;8342668;28;20248;-62
2022/02/15 14:50:55;;;;;;;1.97;1.37;;;;;;;12.12;48.87;97640.53;8349498;28;20228;-62
2022/02/15 14:54:59;;;;;;;1.87;1.30;;;;;;;12.09;48.56;97647.69;8347675;28;20236;-62
2022/02/15 14:59:03;;;;;;;1.63;1.43;;;;;;;12.06;48.95;97651.28;8332228;28;20228;-63
2022/02/15 15:03:06;;;;;;;2.33;1.47;;;;;;;12.04;48.88;97644.50;8342697;28;20232;-61
2022/02/15 15:07:10;;;;;;;1.97;1.43;;;;;;;12.02;48.63;97643.75;8350531;28;20549;-62
2022/02/15 15:11:14;;;;;;;1.53;1.03;;;;;;;12.07;48.64;97642.59;8350129;28;20220;-59
2022/02/15 15:15:18;;;;;;;1.80;1.40;;;;;;;12.07;48.63;97642.59;8349883;28;20236;-63
2022/02/15 15:19:21;;;;;;;2.47;1.70;;;;;;;11.98;49.35;97650.03;8349539;28;20232;-62
2022/02/15 15:23:25;;;;;;;5.73;2.63;;;;;;;12.00;49.82;97646.44;8349206;28;20228;-62
2022/02/15 15:27:29;;;;;;;2.33;2.00;;;;;;;11.60;51.44;97645.16;8349390;28;20251;-62
2022/02/15 15:31:32;;;;;;;2.67;2.10;;;;;;;11.74;51.82;97660.78;8349641;28;20228;-63
2022/02/15 15:35:35;;;;;;;3.50;2.90;;;;;;;11.67;51.70;97665.47;8349893;28;20432;-63
2022/02/15 15:39:39;;;;;;;4.33;2.97;;;;;;;11.67;51.93;97670.66;8349961;28;20236;-63
2022/02/15 15:43:46;;;;;;;4.77;3.00;;;;;;;11.53;52.15;97675.75;8349872;28;20248;-62
2022/02/15 15:47:49;;;;;;;3.73;3.17;;;;;;;11.58;52.10;97673.75;8348990;28;20255;-62
2022/02/15 15:51:52;;;;;;;3.23;2.80;;;;;;;11.26;51.59;97667.66;8349515;28;20232;-62
2022/02/15 15:55:55;;;;;;;3.60;2.10;;;;;;;11.29;51.37;97668.34;8349605;28;20254;-62
2022/02/15 15:59:59;;;;;;;2.33;1.80;;;;;;;11.15;50.32;97670.78;8349620;28;20428;-62
2022/02/15 16:04:22;;;;;;;4.27;1.60;;;;;;;11.11;49.62;97666.69;8348077;28;20410;-62
2022/02/15 16:08:25;;;;;;;1.97;1.40;;;;;;;11.18;49.99;97670.66;8348382;28;20242;-62
2022/02/15 16:12:29;;;;;;;1.93;1.60;;;;;;;11.05;50.50;97660.06;8348482;28;20346;-62
2022/02/15 16:16:34;;;;;;;3.00;2.50;;;;;;;11.15;50.93;97653.47;8346774;28;20224;-63
2022/02/15 16:20:37;;;;;;;2.53;1.80;;;;;;;11.21;51.03;97669.63;8347783;28;20228;-62
2022/02/15 16:24:41;;;;;;;2.43;2.17;;;;;;;11.24;51.20;97672.91;8349306;28;20555;-62
2022/02/15 16:28:45;;;;;;;4.20;2.33;;;;;;;10.87;52.60;97674.81;8346831;28;20224;-67
2022/02/15 16:32:50;;;;;;;4.00;2.30;;;;;;;11.18;51.81;97664.63;8345616;28;20460;-67
2022/02/15 16:36:53;;;;;;;4.33;3.63;;;;;;;11.19;51.76;97681.84;8346635;28;20227;-67
2022/02/15 16:40:56;;;;;;;7.93;6.40;;;;;;;11.21;51.60;97674.81;8346405;28;20231;-66
2022/02/15 16:45:03;;;;;;;6.67;5.97;;;;;;;11.15;52.19;97681.16;8346784;28;20235;-67
2022/02/15 16:49:08;;;;;;;4.33;3.80;;;;;;;10.72;52.87;97684.16;8346886;28;20399;-67
2022/02/15 16:53:11;;;;;;;5.10;3.13;;;;;;;10.72;52.98;97685.94;8347094;28;20263;-66
2022/02/15 16:57:13;;;;;;;6.20;3.87;;;;;;;10.66;53.56;97681.88;8346618;28;20235;-67
2022/02/15 17:01:17;;;;;;;8.77;4.80;;;;;;;10.66;53.87;97689.66;8345564;28;20224;-67
2022/02/15 17:05:21;;;;;;;6.80;5.10;;;;;;;10.68;53.31;97686.97;8346370;28;20232;-67
2022/02/15 17:09:24;;;;;;;6.60;5.73;;;;;;;10.45;53.92;97693.25;8346426;28;20408;-67
2022/02/15 17:13:27;;;;;;;5.83;4.60;;;;;;;10.32;53.88;97712.00;8344322;28;20236;-67
2022/02/15 17:17:30;;;;;;;5.32;4.10;;;;;;;10.78;51.83;97706.34;8344964;28;20418;-67
2022/02/15 17:21:35;;;;;;;5.78;3.60;;;;;;;10.33;53.23;97711.06;8345504;28;20438;-68
2022/02/15 17:25:38;;;;;;;5.30;4.37;;;;;;;10.42;53.59;97714.16;8346639;28;20236;-69
2022/02/15 17:29:40;;;;;;;5.43;3.70;;;;;;;10.38;52.61;97721.22;8346947;28;20232;-68
2022/02/15 17:33:43;;;;;;;3.77;2.90;;;;;;;10.48;52.08;97706.91;8347471;28;20535;-68
2022/02/15 17:37:48;;;;;;;6.23;4.27;;;;;;;10.14;51.82;97711.06;8347400;28;20231;-69
2022/02/15 17:41:52;;;;;;;3.93;2.77;;;;;;;10.22;51.41;97710.69;8346934;28;20242;-69
2022/02/15 17:45:56;;;;;;;4.00;2.77;;;;;;;10.02;51.82;97716.81;8346880;28;20235;-68
2022/02/15 17:50:00;;;;;;;3.97;2.60;;;;;;;10.27;51.02;97715.66;8347446;28;20410;-69
2022/02/15 17:54:04;;;;;;;3.00;2.10;;;;;;;10.41;50.06;97725.41;8347320;28;20236;-69
2022/02/15 17:58:07;;;;;;;2.90;2.00;;;;;;;9.94;50.98;97739.63;8346485;28;20227;-68
2022/02/15 18:02:10;;;;;;;3.37;2.00;;;;;;;9.98;50.70;97731.63;8346702;28;20551;-68
2022/02/15 18:06:13;;;;;;;5.93;2.57;;;;;;;9.91;50.45;97729.38;8346598;28;20413;-69
2022/02/15 18:10:18;;;;;;;5.30;2.60;;;;;;;9.88;50.73;97726.94;8346753;28;20282;-69
2022/02/15 18:14:21;;;;;;;3.83;2.30;;;;;;;10.00;50.66;97731.56;8352472;28;20241;-68
2022/02/15 18:18:30;;;;;;;3.17;2.23;;;;;;;9.86;51.34;97739.97;8352604;28;20260;-68
2022/02/15 18:22:33;;;;;;;3.97;2.50;;;;;;;10.03;50.74;97738.34;8352076;28;20523;-68
2022/02/15 18:26:38;;;;;;;3.80;2.40;;;;;;;10.06;50.61;97744.22;8352076;28;20266;-69
2022/02/15 18:30:43;;;;;;;5.83;3.00;;;;;;;9.99;50.79;97740.22;8352280;28;20232;-68
2022/02/15 18:34:51;;;;;;;4.00;3.20;;;;;;;9.97;50.88;97742.88;8351982;28;20232;-68
2022/02/15 18:38:56;;;;;;;5.37;3.10;;;;;;;10.20;50.34;97737.56;8352012;28;20236;-69
2022/02/15 18:43:00;;;;;;;4.27;3.10;;;;;;;10.23;50.09;97742.59;8351888;28;20224;-68
2022/02/15 18:47:05;;;;;;;5.83;3.10;;;;;;;10.21;49.94;97744.44;8351715;28;20557;-68
2022/02/15 18:51:08;;;;;;;5.03;3.53;;;;;;;9.76;51.51;97749.03;8351702;28;20232;-69
2022/02/15 18:55:11;;;;;;;3.97;3.53;;;;;;;10.04;50.39;97750.38;8350370;28;20232;-68
2022/02/15 18:59:16;;;;;;;5.87;3.83;;;;;;;10.04;50.71;97755.56;8351377;28;20411;-68
2022/02/15 19:03:19;;;;;;;8.20;3.70;;;;;;;9.96;52.41;97750.72;8351195;28;20420;-68
2022/02/15 19:07:23;;;;;;;14.53;4.87;;;;;;;9.97;58.62;97757.56;8350885;28;20612;-68
2022/02/15 19:11:26;;;;;;;15.40;6.63;;;;;;;10.11;67.71;97750.03;8350949;28;20240;-67
2022/02/15 19:15:30;;;;;;;14.47;7.73;;;;;;;10.96;63.59;97746.03;8351140;28;20243;-66